Time;durP1;ratioP1;P1;durP2;ratioP2;P2;SDS_P1;SDS_P2;PMS_P1;PMS_P2;Temp;Humidity;BMP_temperature;BMP_pressure;BME280_temperature;BME280_humidity;BME280_pressure;Samples;Min_cycle;Max_cycle;Signal;HPM_P1;HPM_P2
2023/08/06 00:00:29;;;;;;;8.88;3.25;;;;;;;14.38;100.00;100220.19;4981193;28;20434;-83
2023/08/06 00:03:03;;;;;;;6.47;2.97;;;;;;;14.43;100.00;100214.56;4982644;28;20636;-82
2023/08/06 00:05:31;;;;;;;6.97;2.95;;;;;;;14.41;100.00;100214.06;4981108;28;20438;-82
2023/08/06 00:08:05;;;;;;;5.40;2.78;;;;;;;14.39;100.00;100210.03;4979381;28;20433;-82
2023/08/06 00:10:40;;;;;;;6.72;3.10;;;;;;;14.43;100.00;100209.09;4982553;28;20430;-82
2023/08/06 00:13:13;;;;;;;6.75;2.88;;;;;;;14.46;100.00;100211.19;4982901;28;20410;-81
2023/08/06 00:15:41;;;;;;;7.30;2.97;;;;;;;14.46;100.00;100205.72;5014606;28;20515;-81
2023/08/06 00:18:15;;;;;;;5.80;2.92;;;;;;;14.46;100.00;100211.19;4981843;28;20433;-82
2023/08/06 00:20:48;;;;;;;6.65;3.15;;;;;;;14.35;100.00;100220.00;4983244;28;21025;-82
2023/08/06 00:23:18;;;;;;;8.80;2.95;;;;;;;14.34;100.00;100215.66;4979560;28;20903;-82
2023/08/06 00:25:56;;;;;;;6.28;3.00;;;;;;;14.28;100.00;100218.53;4980321;28;20445;-79
2023/08/06 00:28:29;;;;;;;10.73;3.10;;;;;;;14.32;100.00;100218.72;4981216;28;20430;-83
2023/08/06 00:31:02;;;;;;;9.40;2.90;;;;;;;14.40;100.00;100217.94;4983086;28;20431;-83
2023/08/06 00:33:35;;;;;;;9.07;3.00;;;;;;;14.44;100.00;100202.50;4984110;28;20415;-84
2023/08/06 00:36:04;;;;;;;7.05;2.97;;;;;;;14.43;100.00;100200.88;4984135;28;20428;-84
2023/08/06 00:38:38;;;;;;;6.82;3.13;;;;;;;14.37;100.00;100202.13;4979146;28;20440;-83
2023/08/06 00:41:11;;;;;;;6.78;3.10;;;;;;;14.41;100.00;100194.09;4979774;28;20516;-84
2023/08/06 00:43:40;;;;;;;10.32;3.45;;;;;;;14.39;100.00;100183.47;5012135;28;21002;-83
2023/08/06 00:46:13;;;;;;;8.30;3.10;;;;;;;14.44;100.00;100188.81;4982993;28;20422;-84
2023/08/06 00:48:48;;;;;;;7.25;2.88;;;;;;;14.36;100.00;100181.38;4978020;28;20440;-84
2023/08/06 00:51:16;;;;;;;6.85;2.78;;;;;;;14.41;100.00;100175.75;5014515;28;20418;-83
2023/08/06 00:53:51;;;;;;;7.38;3.00;;;;;;;14.37;100.00;100169.28;4978174;28;20444;-82
2023/08/06 00:56:26;;;;;;;7.93;2.95;;;;;;;14.40;100.00;100170.59;4996113;28;21238;-83
2023/08/06 00:58:59;;;;;;;7.32;3.00;;;;;;;14.43;100.00;100168.03;4982379;28;20428;-83
2023/08/06 01:01:32;;;;;;;9.93;3.07;;;;;;;14.34;100.00;100158.97;4982658;28;20426;-85
2023/08/06 01:04:05;;;;;;;7.07;3.10;;;;;;;14.35;100.00;100155.13;4983676;28;20789;-81
2023/08/06 01:06:48;;;;;;;6.82;3.20;;;;;;;14.40;100.00;100144.03;4982003;28;20445;-85
2023/08/06 01:09:32;;;;;;;10.93;3.47;;;;;;;14.35;100.00;100143.34;4981630;28;20423;-82
2023/08/06 01:12:14;;;;;;;7.05;2.88;;;;;;;14.21;100.00;100138.00;4987814;28;20430;-83
2023/08/06 01:14:54;;;;;;;9.25;3.15;;;;;;;14.19;100.00;100137.53;4995800;28;20843;-83
2023/08/06 01:17:28;;;;;;;8.77;3.25;;;;;;;14.24;100.00;100135.44;4979895;28;20438;-85
2023/08/06 01:19:59;;;;;;;6.45;2.88;;;;;;;14.11;100.00;100128.97;4981515;28;20494;-83
2023/08/06 01:22:34;;;;;;;7.43;2.92;;;;;;;14.12;100.00;100127.03;4979263;28;20428;-84
2023/08/06 01:25:08;;;;;;;5.90;2.90;;;;;;;14.05;100.00;100126.72;4985857;28;20906;-83
2023/08/06 01:27:45;;;;;;;7.38;3.28;;;;;;;14.01;100.00;100128.47;5011053;28;20430;-84
2023/08/06 01:30:23;;;;;;;6.93;3.10;;;;;;;14.03;100.00;100121.56;4980834;28;20440;-83
2023/08/06 01:33:05;;;;;;;7.47;3.10;;;;;;;14.06;100.00;100120.13;4980966;28;20499;-83
2023/08/06 01:35:39;;;;;;;11.48;3.42;;;;;;;14.04;100.00;100117.66;4977877;28;20432;-85
2023/08/06 01:38:14;;;;;;;8.98;3.20;;;;;;;14.02;100.00;100117.19;4978742;28;20458;-82
2023/08/06 01:40:47;;;;;;;7.73;3.23;;;;;;;13.99;100.00;100101.44;4979291;28;20437;-83
2023/08/06 01:43:15;;;;;;;12.57;3.47;;;;;;;13.97;100.00;100098.19;4979372;28;20427;-83
2023/08/06 01:45:48;;;;;;;8.23;3.53;;;;;;;13.99;100.00;100097.88;4981995;28;20425;-84
2023/08/06 01:48:21;;;;;;;7.10;3.10;;;;;;;13.87;100.00;100091.06;4982580;28;20463;-83
2023/08/06 01:50:54;;;;;;;7.35;3.70;;;;;;;13.87;100.00;100103.94;4979172;28;20428;-84
2023/08/06 01:53:29;;;;;;;7.40;3.60;;;;;;;13.85;100.00;100093.34;5011095;28;20808;-84
2023/08/06 01:56:02;;;;;;;6.95;3.40;;;;;;;13.81;100.00;100089.63;4981549;28;20434;-84
2023/08/06 01:58:36;;;;;;;6.70;3.15;;;;;;;13.84;100.00;100086.25;4979611;28;20435;-84
2023/08/06 02:01:04;;;;;;;7.93;3.50;;;;;;;13.84;100.00;100079.97;5010023;28;20426;-83
2023/08/06 02:03:32;;;;;;;7.35;3.70;;;;;;;13.78;100.00;100074.66;5011807;28;20435;-83
2023/08/06 02:06:05;;;;;;;7.78;3.50;;;;;;;13.75;100.00;100075.28;4979668;28;20432;-83
2023/08/06 02:08:40;;;;;;;9.87;3.70;;;;;;;13.70;100.00;100077.31;4979778;28;20434;-84
2023/08/06 02:11:15;;;;;;;9.38;3.50;;;;;;;13.76;100.00;100059.66;5015357;28;20439;-83
2023/08/06 02:13:48;;;;;;;7.15;3.33;;;;;;;13.83;100.00;100073.69;4976561;28;20424;-83
2023/08/06 02:16:22;;;;;;;8.40;3.50;;;;;;;13.81;100.00;100069.66;4978293;28;20942;-83
2023/08/06 02:18:55;;;;;;;6.43;3.20;;;;;;;13.75;100.00;100064.34;4979228;28;20434;-83
2023/08/06 02:21:28;;;;;;;7.20;3.35;;;;;;;13.74;100.00;100060.00;4978835;28;20430;-83
2023/08/06 02:24:03;;;;;;;11.25;3.55;;;;;;;13.81;100.00;100069.66;4979680;28;20443;-84
2023/08/06 02:26:36;;;;;;;8.20;3.45;;;;;;;13.71;100.00;100057.91;4978133;28;20431;-83
2023/08/06 02:29:10;;;;;;;6.93;3.38;;;;;;;13.84;100.00;100058.09;4982257;28;20821;-83
2023/08/06 02:31:44;;;;;;;9.90;3.58;;;;;;;13.81;100.00;100065.00;4977502;28;20414;-83
2023/08/06 02:34:17;;;;;;;10.25;3.47;;;;;;;13.89;100.00;100052.47;4978742;28;20428;-83
2023/08/06 02:36:47;;;;;;;9.65;3.72;;;;;;;13.82;100.00;100043.91;4983162;28;20417;-82
2023/08/06 02:39:21;;;;;;;7.13;3.80;;;;;;;13.75;100.00;100044.38;4979048;28;20432;-83
2023/08/06 02:41:54;;;;;;;7.73;3.90;;;;;;;13.97;100.00;100042.69;4985550;28;20551;-83
2023/08/06 02:44:28;;;;;;;11.90;4.10;;;;;;;13.99;100.00;100032.22;4985284;28;20443;-81
2023/08/06 02:46:57;;;;;;;8.57;4.20;;;;;;;13.87;100.00;100024.63;4981611;28;20424;-84
2023/08/06 02:49:25;;;;;;;10.15;4.22;;;;;;;13.82;100.00;100032.97;4983566;28;20430;-84
2023/08/06 02:51:58;;;;;;;10.25;4.07;;;;;;;13.88;100.00;100028.97;4977047;28;20447;-84
2023/08/06 02:54:32;;;;;;;10.35;4.10;;;;;;;13.77;100.00;100029.28;4979269;28;20431;-83
2023/08/06 02:57:07;;;;;;;6.63;3.72;;;;;;;13.88;100.00;100031.69;4979392;28;20426;-83
2023/08/06 02:59:40;;;;;;;11.80;4.40;;;;;;;13.98;100.00;100027.88;4978542;28;20441;-83
2023/08/06 03:02:17;;;;;;;11.33;4.23;;;;;;;14.05;100.00;100025.47;4978815;28;20445;-83
2023/08/06 03:04:59;;;;;;;9.67;4.20;;;;;;;13.96;100.00;100028.19;4986114;28;20419;-83
2023/08/06 03:07:33;;;;;;;8.73;4.10;;;;;;;13.91;100.00;100018.19;4982271;28;20427;-83
2023/08/06 03:10:32;;;;;;;9.60;4.00;;;;;;;14.07;100.00;100017.75;5007714;28;20434;-84
2023/08/06 03:13:06;;;;;;;10.88;4.32;;;;;;;13.94;100.00;100023.03;4985539;28;20422;-78
2023/08/06 03:15:35;;;;;;;10.98;4.38;;;;;;;14.10;100.00;100015.19;5017335;28;20425;-79
2023/08/06 03:18:10;;;;;;;9.55;4.40;;;;;;;14.06;100.00;100010.69;4989928;28;20427;-78
2023/08/06 03:20:45;;;;;;;9.82;4.20;;;;;;;14.07;100.00;100001.31;4986211;28;20418;-77
2023/08/06 03:23:14;;;;;;;9.90;4.13;;;;;;;14.23;100.00;100005.22;4981133;28;20776;-77
2023/08/06 03:25:43;;;;;;;9.13;4.43;;;;;;;14.22;100.00;99998.13;4987352;28;20422;-80
2023/08/06 03:28:17;;;;;;;11.30;4.75;;;;;;;14.15;100.00;99991.53;4986373;28;20425;-76
2023/08/06 03:30:47;;;;;;;8.73;4.10;;;;;;;14.22;100.00;99991.84;4984595;28;20935;-78
2023/08/06 03:33:15;;;;;;;10.10;4.50;;;;;;;14.13;100.00;99991.84;4999046;28;20419;-79
2023/08/06 03:35:44;;;;;;;10.70;4.20;;;;;;;14.05;100.00;99987.19;5012108;28;20426;-76
2023/08/06 03:38:12;;;;;;;8.10;4.20;;;;;;;14.23;100.00;99991.53;4982945;28;20935;-77
2023/08/06 03:40:40;;;;;;;9.88;4.32;;;;;;;14.09;100.00;99991.69;5015858;28;20436;-75
2023/08/06 03:43:15;;;;;;;9.10;4.03;;;;;;;13.96;100.00;99976.19;4978962;28;20430;-79
2023/08/06 03:45:48;;;;;;;8.15;4.13;;;;;;;13.96;100.00;99984.41;4985468;28;20418;-77
2023/08/06 03:48:21;;;;;;;8.03;4.13;;;;;;;13.94;100.00;99981.19;4982101;28;20416;-78
2023/08/06 03:50:50;;;;;;;13.60;4.55;;;;;;;13.94;100.00;99990.19;4989600;28;20432;-78
2023/08/06 03:53:25;;;;;;;9.38;4.35;;;;;;;13.98;100.00;99982.19;4980475;28;20433;-76
2023/08/06 03:56:00;;;;;;;10.43;4.25;;;;;;;14.01;100.00;99986.19;4978892;28;20438;-76
2023/08/06 03:58:31;;;;;;;11.95;4.55;;;;;;;14.01;100.00;99978.78;5010409;28;20432;-77
2023/08/06 04:01:04;;;;;;;13.10;4.47;;;;;;;13.96;100.00;99973.47;5020040;28;20463;-76
2023/08/06 04:03:43;;;;;;;10.65;4.82;;;;;;;13.99;100.00;99978.31;4984965;28;20439;-76
2023/08/06 04:06:12;;;;;;;11.77;4.15;;;;;;;14.01;100.00;99973.31;5015047;28;20434;-77
2023/08/06 04:08:40;;;;;;;9.45;4.32;;;;;;;14.00;100.00;99966.22;5020862;28;20439;-77
2023/08/06 04:11:09;;;;;;;7.85;4.07;;;;;;;14.27;100.00;99970.59;4991510;28;20416;-77
2023/08/06 04:13:45;;;;;;;10.60;4.55;;;;;;;14.10;100.00;99965.13;4986953;28;20428;-76
2023/08/06 04:16:14;;;;;;;10.40;4.45;;;;;;;14.15;100.00;99964.16;4985138;28;20410;-76
2023/08/06 04:18:48;;;;;;;10.32;4.43;;;;;;;14.32;100.00;99977.03;4984378;28;20855;-77
2023/08/06 04:21:16;;;;;;;10.63;4.32;;;;;;;14.14;100.00;99968.03;4992695;28;20435;-77
2023/08/06 04:23:50;;;;;;;12.57;4.23;;;;;;;14.07;100.00;99973.97;4976957;28;21016;-76
2023/08/06 04:26:23;;;;;;;9.85;4.65;;;;;;;14.06;100.00;99972.38;5015522;28;20427;-78
2023/08/06 04:28:57;;;;;;;9.90;4.60;;;;;;;14.08;100.00;99970.91;5004230;28;20439;-77
2023/08/06 04:31:30;;;;;;;9.47;4.57;;;;;;;14.09;100.00;99971.72;4984764;28;20422;-77
2023/08/06 04:34:00;;;;;;;9.05;4.05;;;;;;;14.08;100.00;99967.38;4981579;28;20773;-78
2023/08/06 04:36:33;;;;;;;10.63;4.22;;;;;;;14.07;100.00;99971.22;4980241;28;20424;-76
2023/08/06 04:39:09;;;;;;;10.13;4.45;;;;;;;14.10;100.00;99976.88;4986596;28;20425;-76
2023/08/06 04:41:42;;;;;;;9.52;4.35;;;;;;;14.09;100.00;99975.25;4986956;28;20432;-77
2023/08/06 04:44:12;;;;;;;10.13;4.77;;;;;;;14.04;100.00;99969.94;4982043;28;20431;-77
2023/08/06 04:46:45;;;;;;;10.23;4.70;;;;;;;14.04;100.00;99967.19;5001455;28;20432;-77
2023/08/06 04:49:18;;;;;;;12.77;4.70;;;;;;;14.05;100.00;99970.75;4980211;28;20496;-77
2023/08/06 04:51:51;;;;;;;12.93;4.90;;;;;;;14.06;100.00;99972.38;5011217;28;20489;-76
2023/08/06 04:54:24;;;;;;;11.18;4.82;;;;;;;14.09;100.00;99980.72;4981218;28;20437;-78
2023/08/06 04:56:58;;;;;;;8.18;4.43;;;;;;;14.14;100.00;99968.84;4985911;28;20445;-76
2023/08/06 04:59:32;;;;;;;10.73;4.50;;;;;;;14.17;100.00;99968.19;4985720;28;20419;-77
2023/08/06 05:02:06;;;;;;;12.15;4.70;;;;;;;14.19;100.00;99963.19;4982939;28;20427;-77
2023/08/06 05:04:39;;;;;;;12.05;5.07;;;;;;;14.15;100.00;99962.22;4985909;28;20431;-76
2023/08/06 05:07:07;;;;;;;13.30;4.70;;;;;;;14.19;100.00;99963.19;4981036;28;20888;-78
2023/08/06 05:09:40;;;;;;;13.45;4.78;;;;;;;14.22;100.00;99959.81;4981967;28;20412;-76
2023/08/06 05:12:13;;;;;;;10.70;4.70;;;;;;;14.27;100.00;99956.91;5013425;28;20436;-76
2023/08/06 05:14:48;;;;;;;9.63;4.60;;;;;;;14.28;100.00;99955.00;4979559;28;21149;-77
2023/08/06 05:17:22;;;;;;;9.15;4.60;;;;;;;14.30;100.00;99958.19;4984533;28;20422;-77
2023/08/06 05:19:51;;;;;;;10.25;4.38;;;;;;;14.33;100.00;99959.50;5008290;28;20437;-77
2023/08/06 05:22:19;;;;;;;9.43;4.85;;;;;;;14.28;100.00;99958.53;4979243;28;20428;-79
2023/08/06 05:24:52;;;;;;;9.60;4.80;;;;;;;14.31;100.00;99959.81;4981601;28;21212;-77
2023/08/06 05:27:25;;;;;;;11.98;4.53;;;;;;;14.32;100.00;99958.69;4982615;28;20416;-77
2023/08/06 05:30:00;;;;;;;10.85;4.70;;;;;;;14.36;100.00;99959.66;4983929;28;20755;-76
2023/08/06 05:32:33;;;;;;;9.30;4.50;;;;;;;14.37;100.00;99953.03;4984218;28;20451;-76
2023/08/06 05:35:01;;;;;;;10.48;4.40;;;;;;;14.36;100.00;99956.94;4984206;28;20428;-76
2023/08/06 05:37:35;;;;;;;9.27;5.10;;;;;;;14.37;100.00;99954.97;4981116;28;20436;-76
2023/08/06 05:40:09;;;;;;;9.88;4.82;;;;;;;14.39;100.00;99950.81;4983135;28;20434;-77
2023/08/06 05:42:42;;;;;;;10.70;4.47;;;;;;;14.43;100.00;99948.19;4979553;28;20485;-78
2023/08/06 05:45:12;;;;;;;9.57;4.53;;;;;;;14.45;100.00;99951.44;4988041;28;20427;-78
2023/08/06 05:47:45;;;;;;;8.73;4.33;;;;;;;14.53;100.00;99952.53;4980163;28;20426;-77
2023/08/06 05:50:18;;;;;;;9.45;4.60;;;;;;;14.52;100.00;99951.75;4978450;28;20440;-77
2023/08/06 05:52:51;;;;;;;9.52;4.57;;;;;;;14.53;100.00;99950.63;4980894;28;20878;-76
2023/08/06 05:55:24;;;;;;;10.40;4.75;;;;;;;14.54;100.00;99954.97;4976573;28;20876;-77
2023/08/06 05:57:53;;;;;;;9.00;4.73;;;;;;;14.58;100.00;99941.44;4981849;28;20773;-79
2023/08/06 06:00:23;;;;;;;11.48;4.60;;;;;;;14.59;100.00;99948.50;5012706;28;20771;-77
2023/08/06 06:02:51;;;;;;;9.63;4.57;;;;;;;14.60;100.00;99942.72;4987471;28;20435;-76
2023/08/06 06:05:24;;;;;;;9.38;4.70;;;;;;;14.52;100.00;99954.47;4982003;28;21037;-77
2023/08/06 06:07:57;;;;;;;10.60;4.80;;;;;;;14.55;100.00;99950.28;4981809;28;20422;-77
2023/08/06 06:10:30;;;;;;;11.27;4.67;;;;;;;14.50;100.00;99958.66;4995406;28;20425;-78
2023/08/06 06:13:03;;;;;;;10.95;5.28;;;;;;;14.46;100.00;99964.00;4982959;28;20424;-78
2023/08/06 06:15:38;;;;;;;11.15;4.63;;;;;;;14.51;100.00;99955.59;4980319;28;20432;-79
2023/08/06 06:18:12;;;;;;;9.50;4.82;;;;;;;14.39;100.00;99952.72;4986018;28;20441;-77
2023/08/06 06:20:45;;;;;;;12.52;5.30;;;;;;;14.33;100.00;99954.03;4985546;28;20432;-78
2023/08/06 06:23:18;;;;;;;10.47;4.73;;;;;;;14.32;100.00;99953.22;4983073;28;20515;-78
2023/08/06 06:25:49;;;;;;;11.50;5.10;;;;;;;14.35;100.00;99947.09;4984803;28;20428;-79
2023/08/06 06:28:17;;;;;;;10.10;5.10;;;;;;;14.38;100.00;99942.91;4982388;28;20445;-78
2023/08/06 06:30:52;;;;;;;11.43;4.80;;;;;;;14.36;100.00;99939.69;5010311;28;21019;-79
2023/08/06 06:33:25;;;;;;;10.68;5.30;;;;;;;14.35;100.00;99940.81;4988392;28;20426;-78
2023/08/06 06:35:58;;;;;;;10.60;5.38;;;;;;;14.23;100.00;99945.00;4990422;28;20815;-78
2023/08/06 06:38:31;;;;;;;10.23;5.20;;;;;;;14.31;100.00;99946.13;4986607;28;20439;-78
2023/08/06 06:41:05;;;;;;;10.30;5.32;;;;;;;14.32;100.00;99942.28;4981203;28;20426;-79
2023/08/06 06:43:33;;;;;;;11.07;5.07;;;;;;;14.33;100.00;99937.59;4996127;28;20435;-79
2023/08/06 06:46:07;;;;;;;12.00;5.57;;;;;;;14.36;100.00;99936.94;4996874;28;20440;-80
2023/08/06 06:48:41;;;;;;;12.57;5.30;;;;;;;14.36;100.00;99940.50;5001699;28;20432;-80
2023/08/06 06:51:09;;;;;;;9.57;5.55;;;;;;;14.32;100.00;99941.47;4986697;28;20785;-79
2023/08/06 06:53:37;;;;;;;13.02;5.53;;;;;;;14.35;100.00;99924.38;4980820;28;20784;-80
2023/08/06 06:56:06;;;;;;;13.80;5.72;;;;;;;14.38;100.00;99937.44;5007873;28;20439;-80
2023/08/06 06:58:40;;;;;;;13.65;5.68;;;;;;;14.32;100.00;99931.31;5016477;28;20427;-80
2023/08/06 07:01:11;;;;;;;15.60;5.63;;;;;;;14.36;100.00;99932.28;4980987;28;20635;-80
2023/08/06 07:03:44;;;;;;;10.93;5.70;;;;;;;14.36;100.00;99932.28;4983959;28;20434;-80
2023/08/06 07:06:13;;;;;;;9.40;5.55;;;;;;;14.41;100.00;99932.09;4982774;28;21230;-80
2023/08/06 07:08:46;;;;;;;12.13;5.78;;;;;;;14.46;100.00;99928.41;4995029;28;20432;-80
2023/08/06 07:11:19;;;;;;;11.80;5.70;;;;;;;14.54;100.00;99935.81;4980848;28;20422;-80
2023/08/06 07:13:48;;;;;;;11.05;5.70;;;;;;;14.57;100.00;99929.69;4988135;28;20969;-79
2023/08/06 07:16:17;;;;;;;12.95;6.50;;;;;;;14.56;100.00;99933.53;4985429;28;20419;-78
2023/08/06 07:18:52;;;;;;;10.45;6.20;;;;;;;14.46;100.00;99926.47;5020926;28;20426;-78
2023/08/06 07:21:20;;;;;;;13.93;6.28;;;;;;;14.38;100.00;99932.75;5008647;28;20432;-78
2023/08/06 07:23:49;;;;;;;10.27;6.03;;;;;;;14.43;100.00;99929.88;4987493;28;20427;-79
2023/08/06 07:26:23;;;;;;;11.18;5.82;;;;;;;14.40;100.00;99941.47;4978123;28;20455;-79
2023/08/06 07:28:51;;;;;;;10.07;5.95;;;;;;;14.44;100.00;99936.13;4976994;28;20443;-80
2023/08/06 07:31:26;;;;;;;9.70;5.80;;;;;;;14.52;100.00;99935.31;5006827;28;20959;-82
2023/08/06 07:33:59;;;;;;;11.55;6.22;;;;;;;14.56;100.00;99938.22;4983259;28;20426;-81
2023/08/06 07:36:27;;;;;;;12.13;6.60;;;;;;;14.54;100.00;99944.03;5023475;28;20421;-78
2023/08/06 07:39:00;;;;;;;13.75;6.20;;;;;;;14.54;100.00;99935.81;4983145;28;20467;-79
2023/08/06 07:41:29;;;;;;;11.20;6.40;;;;;;;14.57;100.00;99943.38;5000676;28;20434;-79
2023/08/06 07:44:02;;;;;;;15.00;6.83;;;;;;;14.56;100.00;99932.75;4988910;28;20888;-79
2023/08/06 07:46:31;;;;;;;12.95;6.00;;;;;;;14.57;100.00;99932.41;4985964;28;20433;-78
2023/08/06 07:48:59;;;;;;;10.48;5.80;;;;;;;14.64;100.00;99934.69;5016444;28;20434;-78
2023/08/06 07:51:33;;;;;;;13.80;6.53;;;;;;;14.61;100.00;99929.81;4984641;28;20463;-79
2023/08/06 07:54:01;;;;;;;11.50;6.60;;;;;;;14.71;100.00;99931.47;4978680;28;20428;-78
2023/08/06 07:56:29;;;;;;;11.43;6.53;;;;;;;14.75;100.00;99930.47;4977807;28;20468;-80
2023/08/06 07:59:02;;;;;;;11.70;6.40;;;;;;;14.72;100.00;99933.03;4988780;28;20441;-78
2023/08/06 08:01:37;;;;;;;12.60;6.70;;;;;;;14.71;100.00;99928.72;4997098;28;20438;-78
2023/08/06 08:04:10;;;;;;;13.70;6.82;;;;;;;14.76;100.00;99940.31;4976507;28;20443;-80
2023/08/06 08:06:38;;;;;;;13.40;6.50;;;;;;;14.65;100.00;99927.28;4981638;28;20438;-77
2023/08/06 08:09:06;;;;;;;13.85;6.30;;;;;;;14.69;100.00;99929.03;4986880;28;20898;-77
2023/08/06 08:11:39;;;;;;;11.05;6.40;;;;;;;14.77;100.00;99922.72;4984255;28;20831;-78
2023/08/06 08:14:12;;;;;;;13.32;6.60;;;;;;;14.87;100.00;99920.75;4985449;28;20437;-78
2023/08/06 08:16:47;;;;;;;11.95;6.68;;;;;;;14.90;100.00;99914.63;4986559;28;20939;-79
2023/08/06 08:19:21;;;;;;;12.07;7.07;;;;;;;14.92;100.00;99920.59;4978005;28;20443;-79
2023/08/06 08:21:54;;;;;;;11.55;6.50;;;;;;;15.05;100.00;99913.28;4984915;28;20432;-78
2023/08/06 08:24:27;;;;;;;12.63;6.50;;;;;;;15.05;100.00;99916.03;4978196;28;20442;-79
2023/08/06 08:26:55;;;;;;;13.57;6.57;;;;;;;15.05;100.00;99918.75;4985911;28;20465;-78
2023/08/06 08:29:24;;;;;;;15.60;6.78;;;;;;;15.14;100.00;99914.06;4988390;28;20410;-79
2023/08/06 08:31:58;;;;;;;15.90;8.70;;;;;;;15.17;100.00;99915.34;4988156;28;20419;-79
2023/08/06 08:34:26;;;;;;;12.52;6.60;;;;;;;15.22;100.00;99921.44;4983943;28;20431;-79
2023/08/06 08:36:59;;;;;;;13.52;6.55;;;;;;;15.23;100.00;99914.84;4978801;28;20443;-79
2023/08/06 08:39:33;;;;;;;14.13;6.50;;;;;;;15.14;100.00;99916.81;5001853;28;20764;-76
2023/08/06 08:42:02;;;;;;;12.13;6.45;;;;;;;15.21;100.00;99919.03;4988157;28;20414;-77
2023/08/06 08:44:32;;;;;;;11.68;6.47;;;;;;;15.29;100.00;99918.97;4986352;28;21133;-77
2023/08/06 08:47:08;;;;;;;13.57;6.75;;;;;;;15.34;100.00;99914.44;4991008;28;20440;-78
2023/08/06 08:49:42;;;;;;;10.55;6.32;;;;;;;15.39;100.00;99919.75;4998054;28;20425;-77
2023/08/06 08:52:17;;;;;;;13.00;6.60;;;;;;;15.61;100.00;99924.13;5001974;28;20441;-79
2023/08/06 08:54:52;;;;;;;15.67;7.03;;;;;;;15.67;100.00;99919.25;4979202;28;20777;-78
2023/08/06 08:57:25;;;;;;;12.57;6.43;;;;;;;15.64;100.00;99921.50;4985790;28;20429;-79
2023/08/06 08:59:59;;;;;;;13.65;6.50;;;;;;;15.54;100.00;99915.63;4982980;28;20442;-78
2023/08/06 09:02:30;;;;;;;13.77;6.93;;;;;;;15.64;100.00;99910.53;4996397;28;20443;-79
2023/08/06 09:05:05;;;;;;;12.00;6.90;;;;;;;15.68;100.00;99902.47;4983327;28;20432;-78
2023/08/06 09:07:43;;;;;;;14.25;6.78;;;;;;;15.73;100.00;99902.28;4987370;28;20939;-78
2023/08/06 09:10:17;;;;;;;16.10;7.20;;;;;;;15.70;100.00;99904.88;4982796;28;20933;-79
2023/08/06 09:12:46;;;;;;;13.02;7.15;;;;;;;15.68;100.00;99893.44;4985788;28;20414;-78
2023/08/06 09:15:20;;;;;;;12.32;6.53;;;;;;;15.70;100.00;99907.59;4979986;28;20430;-77
2023/08/06 09:17:49;;;;;;;11.60;7.00;;;;;;;15.69;100.00;99906.00;5009767;28;20443;-79
2023/08/06 09:20:22;;;;;;;13.48;7.30;;;;;;;15.78;100.00;99902.09;4982493;28;20422;-77
2023/08/06 09:22:56;;;;;;;14.30;6.97;;;;;;;15.81;100.00;99903.34;4993957;28;20952;-78
2023/08/06 09:25:26;;;;;;;12.25;6.75;;;;;;;15.78;100.00;99909.50;4981943;28;20545;-79
2023/08/06 09:27:59;;;;;;;13.40;7.00;;;;;;;15.74;100.00;99901.13;4986815;28;20439;-80
2023/08/06 09:30:34;;;;;;;14.20;6.60;;;;;;;15.73;100.00;99909.69;4981481;28;20458;-78
2023/08/06 09:33:11;;;;;;;11.98;7.15;;;;;;;15.70;100.00;99904.88;4988987;28;20550;-79
2023/08/06 09:35:39;;;;;;;12.57;6.90;;;;;;;15.58;100.00;99906.41;4982921;28;20437;-79
2023/08/06 09:38:09;;;;;;;12.93;6.93;;;;;;;15.61;100.00;99910.41;4998877;28;20432;-78
2023/08/06 09:40:42;;;;;;;11.38;6.75;;;;;;;15.65;100.00;99905.88;4984972;28;20921;-78
2023/08/06 09:43:12;;;;;;;13.93;6.60;;;;;;;15.57;100.00;99902.03;4990038;28;20437;-77
2023/08/06 09:45:41;;;;;;;14.23;6.68;;;;;;;15.56;100.00;99905.91;4980391;28;20433;-77
2023/08/06 09:48:15;;;;;;;11.90;6.27;;;;;;;15.71;100.00;99910.00;4978350;28;20430;-77
2023/08/06 09:50:45;;;;;;;10.23;5.85;;;;;;;15.72;100.00;99913.56;4982918;28;20416;-78
2023/08/06 09:53:14;;;;;;;8.80;6.20;;;;;;;15.73;100.00;99912.41;5012575;28;20432;-78
2023/08/06 09:55:42;;;;;;;10.27;6.38;;;;;;;15.74;100.00;99903.06;4976872;28;20769;-77
2023/08/06 09:58:15;;;;;;;12.98;6.45;;;;;;;15.75;100.00;99899.97;5019556;28;20426;-78
2023/08/06 10:00:44;;;;;;;10.37;6.50;;;;;;;15.64;100.00;99904.25;4993137;28;20430;-79
2023/08/06 10:03:19;;;;;;;12.65;6.80;;;;;;;15.66;100.00;99902.00;4983560;28;20434;-77
2023/08/06 10:05:52;;;;;;;13.85;6.82;;;;;;;15.63;100.00;99902.66;4988246;28;20439;-78
2023/08/06 10:08:25;;;;;;;12.82;6.80;;;;;;;15.60;100.00;99898.63;4980129;28;20436;-77
2023/08/06 10:10:59;;;;;;;9.40;6.20;;;;;;;15.53;100.00;99894.81;4976039;28;20443;-80
2023/08/06 10:13:34;;;;;;;12.35;6.50;;;;;;;15.63;100.00;99894.41;4984162;28;20439;-77
2023/08/06 10:16:08;;;;;;;9.80;6.33;;;;;;;15.81;100.00;99889.63;4979019;28;20427;-77
2023/08/06 10:18:44;;;;;;;13.20;6.90;;;;;;;15.78;100.00;99887.53;5011864;28;20434;-78
2023/08/06 10:21:17;;;;;;;12.48;6.55;;;;;;;15.81;100.00;99884.97;4983282;28;20435;-77
2023/08/06 10:23:54;;;;;;;14.85;7.10;;;;;;;15.81;100.00;99890.47;4980860;28;20795;-78
2023/08/06 10:26:28;;;;;;;13.23;6.65;;;;;;;15.83;100.00;99886.59;4974713;28;20436;-77
2023/08/06 10:29:01;;;;;;;13.27;6.63;;;;;;;15.86;100.00;99886.69;4988044;28;20441;-77
2023/08/06 10:31:59;;;;;;;13.13;6.30;;;;;;;15.94;100.00;99882.28;4987377;28;20500;-76
2023/08/06 10:34:55;;;;;;;11.30;6.30;;;;;;;15.98;100.00;99880.50;4984143;28;20425;-77
2023/08/06 10:37:23;;;;;;;10.48;6.47;;;;;;;16.03;100.00;99873.97;4986232;28;20969;-78
2023/08/06 10:39:56;;;;;;;10.05;6.40;;;;;;;16.03;100.00;99877.50;4983599;28;20423;-77
2023/08/06 10:42:28;;;;;;;10.60;6.80;;;;;;;16.12;100.00;99875.50;4980375;28;20413;-77
2023/08/06 10:45:16;;;;;;;11.82;6.93;;;;;;;16.17;100.00;99866.25;4978298;28;20434;-76
2023/08/06 10:47:44;;;;;;;11.23;7.00;;;;;;;16.22;100.00;99865.25;4981861;28;20415;-77
2023/08/06 10:50:19;;;;;;;13.77;6.93;;;;;;;16.16;100.00;99856.44;4980327;28;20469;-78
2023/08/06 10:52:53;;;;;;;11.68;6.47;;;;;;;16.19;100.00;99861.25;4982539;28;20453;-77
2023/08/06 10:55:25;;;;;;;10.60;6.43;;;;;;;16.17;100.00;99858.00;4984515;28;20423;-78
2023/08/06 10:57:59;;;;;;;10.18;6.57;;;;;;;16.13;100.00;99854.38;4992315;28;20436;-76
2023/08/06 11:00:27;;;;;;;12.57;6.97;;;;;;;16.13;100.00;99848.88;4977641;28;20426;-76
2023/08/06 11:02:55;;;;;;;13.02;6.93;;;;;;;16.21;100.00;99844.44;4979852;28;20437;-77
2023/08/06 11:05:25;;;;;;;11.77;6.40;;;;;;;16.20;100.00;99832.66;4978981;28;20431;-76
2023/08/06 11:07:53;;;;;;;11.88;6.90;;;;;;;16.21;100.00;99831.50;4978972;28;20434;-76
2023/08/06 11:10:27;;;;;;;13.13;6.85;;;;;;;16.26;100.00;99827.75;5015166;28;20437;-76
2023/08/06 11:12:55;;;;;;;13.00;6.97;;;;;;;16.09;100.00;99831.47;4984664;28;20982;-77
2023/08/06 11:15:23;;;;;;;15.00;7.15;;;;;;;16.09;100.00;99828.72;4982092;28;20430;-76
2023/08/06 11:17:56;;;;;;;12.35;7.15;;;;;;;16.16;100.00;99823.50;4980590;28;20438;-77
2023/08/06 11:20:31;;;;;;;12.57;7.45;;;;;;;16.15;100.00;99814.44;4980387;28;20431;-75
2023/08/06 11:23:00;;;;;;;12.60;6.93;;;;;;;16.13;100.00;99822.22;4977255;28;20894;-76
2023/08/06 11:25:29;;;;;;;13.77;7.22;;;;;;;16.19;100.00;99822.00;4979694;28;20886;-76
2023/08/06 11:28:02;;;;;;;11.60;7.05;;;;;;;16.23;100.00;99823.72;4995205;28;20451;-78
2023/08/06 11:30:35;;;;;;;12.83;6.93;;;;;;;16.26;100.00;99825.78;4993712;28;20442;-77
2023/08/06 11:33:09;;;;;;;13.77;7.13;;;;;;;16.23;100.00;99831.97;4978003;28;20443;-76
2023/08/06 11:35:39;;;;;;;12.07;7.88;;;;;;;16.20;100.00;99829.09;4982874;28;20438;-77
2023/08/06 11:38:08;;;;;;;14.43;7.10;;;;;;;16.26;100.00;99825.00;4982999;28;21478;-77
2023/08/06 11:40:42;;;;;;;12.73;7.13;;;;;;;16.26;100.00;99823.03;4978166;28;20826;-77